Time;durP1;ratioP1;P1;durP2;ratioP2;P2;SDS_P1;SDS_P2;PMS_P1;PMS_P2;Temp;Humidity;BMP_temperature;BMP_pressure;BME280_temperature;BME280_humidity;BME280_pressure;Samples;Min_cycle;Max_cycle;Signal;HPM_P1;HPM_P2
2024/03/14 06:00:34;;;;;;;;;;;;;;;;;;5934237;23;20000;-51
2024/03/14 06:03:01;;;;;;;;;;;;;;;;;;4972242;28;20314;-47
2024/03/14 06:05:27;;;;;;;;;;;;;;;;;;4972601;28;19923;-49
2024/03/14 06:07:53;;;;;;;;;;;;;;;;;;4971247;28;19926;-46
2024/03/14 06:10:21;;;;;;;;;;;;;;;;;;4972581;28;19976;-46
2024/03/14 06:12:48;;;;;;;;;;;;;;;;;;4972355;28;19914;-48
2024/03/14 06:15:14;;;;;;;;;;;;;;;;;;4972032;28;20021;-45
2024/03/14 06:17:40;;;;;;;;;;;;;;;;;;4971519;28;20400;-47
2024/03/14 06:20:07;;;;;;;;;;;;;;;;;;4972604;28;20288;-48
2024/03/14 06:22:36;;;;;;;;;;;;;;;;;;4972541;28;19921;-47
2024/03/14 06:25:01;;;;;;;;;;;;;;;;;;4972018;28;19915;-47
2024/03/14 06:27:28;;;;;;;;;;;;;;;;;;4971135;28;19921;-48
2024/03/14 06:29:54;;;;;;;;;;;;;;;;;;4971979;28;20017;-48
2024/03/14 06:32:21;;;;;;;;;;;;;;;;;;4970466;28;19914;-48
2024/03/14 06:34:48;;;;;;;;;;;;;;;;;;4971731;28;19968;-46
2024/03/14 06:37:15;;;;;;;;;;;;;;;;;;4971243;28;19965;-48
2024/03/14 06:39:41;;;;;;;;;;;;;;;;;;4971783;28;19921;-45
2024/03/14 06:42:07;;;;;;;;;;;;;;;;;;4971880;28;19910;-45
2024/03/14 06:44:33;;;;;;;;;;;;;;;;;;4971840;28;19957;-45
2024/03/14 06:46:59;;;;;;;;;;;;;;;;;;4972093;28;21123;-46
2024/03/14 06:49:26;;;;;;;;;;;;;;;;;;4971117;28;19910;-45
2024/03/14 06:51:52;;;;;;;;;;;;;;;;;;4971118;28;19965;-46
2024/03/14 06:54:18;;;;;;;;;;;;;;;;;;4972084;28;20343;-45
2024/03/14 06:56:45;;;;;;;;;;;;;;;;;;4972052;28;20012;-45
2024/03/14 06:59:14;;;;;;;;;;;;;;;;;;4971599;28;19910;-47
2024/03/14 07:01:40;;;;;;;;;;;;;;;;;;4971719;28;19922;-46
2024/03/14 07:04:07;;;;;;;;;;;;;;;;;;4970642;28;19949;-47
2024/03/14 07:06:33;;;;;;;;;;;;;;;;;;4972121;28;19910;-47
2024/03/14 07:08:59;;;;;;;;;;;;;;;;;;4970255;28;20025;-45
2024/03/14 07:11:28;;;;;;;;;;;;;;;;;;4971101;28;19910;-48
2024/03/14 07:13:54;;;;;;;;;;;;;;;;;;4971595;28;19987;-47
2024/03/14 07:16:21;;;;;;;;;;;;;;;;;;4971696;28;20001;-49
2024/03/14 07:18:47;;;;;;;;;;;;;;;;;;4971595;28;19910;-47
2024/03/14 07:21:13;;;;;;;;;;;;;;;;;;4969066;28;19923;-46
2024/03/14 07:23:39;;;;;;;;;;;;;;;;;;4970924;28;19918;-47
2024/03/14 07:26:05;;;;;;;;;;;;;;;;;;4969844;28;19914;-47
2024/03/14 07:28:31;;;;;;;;;;;;;;;;;;4971314;28;19914;-48
2024/03/14 07:30:58;;;;;;;;;;;;;;;;;;4969728;28;19915;-48
2024/03/14 07:33:25;;;;;;;;;;;;;;;;;;4961733;28;19914;-49
2024/03/14 07:35:53;;;;;;;;;;;;;;;;;;4971556;28;19993;-49
2024/03/14 07:38:21;;;;;;;;;;;;;;;;;;4972231;28;19914;-47
2024/03/14 07:40:47;;;;;;;;;;;;;;;;;;4972040;28;19938;-48
2024/03/14 07:43:13;;;;;;;;;;;;;;;;;;4972179;28;19914;-45
2024/03/14 07:45:38;;;;;;;;;;;;;;;;;;4969313;28;19953;-47
2024/03/14 07:48:04;;;;;;;;;;;;;;;;;;4965568;28;19922;-49
2024/03/14 07:50:30;;;;;;;;;;;;;;;;;;4968670;28;20001;-50
2024/03/14 07:52:59;;;;;;;;;;;;;;;;;;4975986;28;19910;-48
2024/03/14 07:55:25;;;;;;;;;;;;;;;;;;4974621;28;19914;-48
2024/03/14 07:57:51;;;;;;;;;;;;;;;;;;4975178;28;19960;-48
2024/03/14 08:00:17;;;;;;;;;;;;;;;;;;4975574;28;20938;-45
2024/03/14 08:02:54;;;;;;;;;;;;;;;;;;4974865;28;19940;-47
2024/03/14 08:05:21;;;;;;;;;;;;;;;;;;4972217;28;20050;-46
2024/03/14 08:07:48;;;;;;;;;;;;;;;;;;4974014;28;19922;-49
2024/03/14 08:10:14;;;;;;;;;;;;;;;;;;4974758;28;20346;-45
2024/03/14 08:12:40;;;;;;;;;;;;;;;;;;4973947;28;19914;-50
2024/03/14 08:15:16;;;;;;;;;;;;;;;;;;4973314;28;20061;-47
2024/03/14 08:17:43;;;;;;;;;;;;;;;;;;4972559;28;19918;-46
2024/03/14 08:20:15;;;;;;;;;;;;;;;;;;4974300;28;20053;-51
2024/03/14 08:22:42;;;;;;;;;;;;;;;;;;4969441;28;19922;-48
2024/03/14 08:25:15;;;;;;;;;;;;;;;;;;4966410;28;20328;-47
2024/03/14 08:27:41;;;;;;;;;;;;;;;;;;4973264;28;19921;-50
2024/03/14 08:30:10;;;;;;;;;;;;;;;;;;4974210;28;19925;-49
2024/03/14 08:32:36;;;;;;;;;;;;;;;;;;4974268;28;19910;-45
2024/03/14 08:35:05;;;;;;;;;;;;;;;;;;4974086;28;19964;-46
2024/03/14 08:37:30;;;;;;;;;;;;;;;;;;4970289;28;20033;-50
2024/03/14 08:39:56;;;;;;;;;;;;;;;;;;4969660;28;20001;-46
2024/03/14 08:42:32;;;;;;;;;;;;;;;;;;4972846;28;19914;-46
2024/03/14 08:44:58;;;;;;;;;;;;;;;;;;4973938;28;19914;-47
2024/03/14 08:47:24;;;;;;;;;;;;;;;;;;4971741;28;20380;-51
2024/03/14 08:49:50;;;;;;;;;;;;;;;;;;4973129;28;19910;-50
2024/03/14 08:52:16;;;;;;;;;;;;;;;;;;4968761;28;20308;-46
2024/03/14 08:54:45;;;;;;;;;;;;;;;;;;4954740;29;19938;-49
2024/03/14 08:57:12;;;;;;;;;;;;;;;;;;4954567;29;19911;-46
2024/03/14 08:59:39;;;;;;;;;;;;;;;;;;4954233;28;19953;-49
2024/03/14 09:02:08;;;;;;;;;;;;;;;;;;4965759;28;20379;-49
2024/03/14 09:04:35;;;;;;;;;;;;;;;;;;4971868;28;20284;-46
2024/03/14 09:07:01;;;;;;;;;;;;;;;;;;4973612;28;20013;-48
2024/03/14 09:09:27;;;;;;;;;;;;;;;;;;4973598;28;19941;-46
2024/03/14 09:11:53;;;;;;;;;;;;;;;;;;4973495;28;20273;-45
2024/03/14 09:14:19;;;;;;;;;;;;;;;;;;4972709;28;19914;-47
2024/03/14 09:16:47;;;;;;;;;;;;;;;;;;4973630;28;19922;-46
2024/03/14 09:19:13;;;;;;;;;;;;;;;;;;4973470;28;20041;-46
2024/03/14 09:21:39;;;;;;;;;;;;;;;;;;4971904;28;20005;-46
2024/03/14 09:24:07;;;;;;;;;;;;;;;;;;4973324;28;19996;-48
2024/03/14 09:26:34;;;;;;;;;;;;;;;;;;4973186;28;19932;-46
2024/03/14 09:29:00;;;;;;;;;;;;;;;;;;4972437;28;19980;-46
2024/03/14 09:31:26;;;;;;;;;;;;;;;;;;4970937;28;19918;-46
2024/03/14 09:33:52;;;;;;;;;;;;;;;;;;4972358;28;20400;-47
2024/03/14 09:36:19;;;;;;;;;;;;;;;;;;4973067;28;19910;-47
2024/03/14 09:38:45;;;;;;;;;;;;;;;;;;4973140;28;19936;-47
2024/03/14 09:41:11;;;;;;;;;;;;;;;;;;4972999;28;20386;-45
2024/03/14 09:43:37;;;;;;;;;;;;;;;;;;4971899;28;19918;-47
2024/03/14 09:46:05;;;;;;;;;;;;;;;;;;4972284;28;20276;-46
2024/03/14 09:48:31;;;;;;;;;;;;;;;;;;4971880;28;19925;-48
2024/03/14 09:50:57;;;;;;;;;;;;;;;;;;4972639;28;19916;-48
2024/03/14 09:53:26;;;;;;;;;;;;;;;;;;4972841;28;20361;-47
2024/03/14 09:55:53;;;;;;;;;;;;;;;;;;4968949;28;20441;-47
2024/03/14 09:58:20;;;;;;;;;;;;;;;;;;4957956;28;19965;-48
2024/03/14 10:00:46;;;;;;;;;;;;;;;;;;4963637;28;19921;-46
2024/03/14 10:03:13;;;;;;;;;;;;;;;;;;4970340;28;19914;-46
2024/03/14 10:05:39;;;;;;;;;;;;;;;;;;4970405;28;20776;-50
2024/03/14 10:08:05;;;;;;;;;;;;;;;;;;4970225;28;20490;-47
2024/03/14 10:10:34;;;;;;;;;;;;;;;;;;4970500;28;19960;-48
2024/03/14 10:13:00;;;;;;;;;;;;;;;;;;4965890;28;19914;-47
2024/03/14 10:15:27;;;;;;;;;;;;;;;;;;4952022;28;20001;-46
2024/03/14 10:17:52;;;;;;;;;;;;;;;;;;4951998;28;20055;-45
2024/03/14 10:20:18;;;;;;;;;;;;;;;;;;4952448;28;19911;-48
2024/03/14 10:22:48;;;;;;;;;;;;;;;;;;4952533;28;19911;-46
2024/03/14 10:25:16;;;;;;;;;;;;;;;;;;4952048;28;20283;-50
2024/03/14 10:27:44;;;;;;;;;;;;;;;;;;4951749;28;20240;-47
2024/03/14 10:30:12;;;;;;;;;;;;;;;;;;4951987;28;19922;-48
2024/03/14 10:32:38;;;;;;;;;;;;;;;;;;4951829;28;19993;-47
2024/03/14 10:35:08;;;;;;;;;;;;;;;;;;4951930;28;20348;-46
2024/03/14 10:37:34;;;;;;;;;;;;;;;;;;4951627;28;19922;-47
2024/03/14 10:40:01;;;;;;;;;;;;;;;;;;4969956;28;20437;-47
2024/03/14 10:42:27;;;;;;;;;;;;;;;;;;4969549;28;19964;-46
2024/03/14 10:44:53;;;;;;;;;;;;;;;;;;4969763;28;19918;-46
2024/03/14 10:47:19;;;;;;;;;;;;;;;;;;4970064;28;20336;-45
2024/03/14 10:49:45;;;;;;;;;;;;;;;;;;4964151;28;20001;-49
2024/03/14 10:52:14;;;;;;;;;;;;;;;;;;4951880;28;19972;-47
2024/03/14 10:54:40;;;;;;;;;;;;;;;;;;4951748;28;20344;-46
2024/03/14 10:57:07;;;;;;;;;;;;;;;;;;4951547;28;20363;-46
2024/03/14 10:59:33;;;;;;;;;;;;;;;;;;4951518;28;20405;-46
2024/03/14 11:01:59;;;;;;;;;;;;;;;;;;4956648;28;19926;-46
2024/03/14 11:04:25;;;;;;;;;;;;;;;;;;4954024;28;19911;-46
2024/03/14 11:06:52;;;;;;;;;;;;;;;;;;4951375;28;20392;-46
2024/03/14 11:09:18;;;;;;;;;;;;;;;;;;4952788;28;19911;-46
2024/03/14 11:11:45;;;;;;;;;;;;;;;;;;4957652;28;19922;-46
2024/03/14 11:14:11;;;;;;;;;;;;;;;;;;4959138;28;19919;-46
2024/03/14 11:16:39;;;;;;;;;;;;;;;;;;4951448;28;19911;-49
2024/03/14 11:19:05;;;;;;;;;;;;;;;;;;4952262;28;19911;-46
2024/03/14 11:21:32;;;;;;;;;;;;;;;;;;4951293;28;20018;-46
2024/03/14 11:23:59;;;;;;;;;;;;;;;;;;4952423;28;19918;-46
2024/03/14 11:26:25;;;;;;;;;;;;;;;;;;4955121;28;19993;-47
2024/03/14 11:29:02;;;;;;;;;;;;;;;;;;4953612;28;20013;-47
2024/03/14 11:31:28;;;;;;;;;;;;;;;;;;4955698;28;19918;-52
2024/03/14 11:33:54;;;;;;;;;;;;;;;;;;4957811;28;19910;-49
2024/03/14 11:36:20;;;;;;;;;;;;;;;;;;4974426;28;19914;-49
2024/03/14 11:38:47;;;;;;;;;;;;;;;;;;4974819;28;19965;-47
2024/03/14 11:41:13;;;;;;;;;;;;;;;;;;4974677;28;19914;-46
2024/03/14 11:43:41;;;;;;;;;;;;;;;;;;4974779;28;20313;-45
2024/03/14 11:46:10;;;;;;;;;;;;;;;;;;4974663;28;19937;-49
2024/03/14 11:48:35;;;;;;;;;;;;;;;;;;4973601;28;19918;-48
2024/03/14 11:51:01;;;;;;;;;;;;;;;;;;4972531;28;19918;-48
2024/03/14 11:53:27;;;;;;;;;;;;;;;;;;4972943;28;19925;-47
2024/03/14 11:55:53;;;;;;;;;;;;;;;;;;4972239;28;20012;-49
2024/03/14 11:58:22;;;;;;;;;;;;;;;;;;4974164;28;19910;-47
2024/03/14 12:00:48;;;;;;;;;;;;;;;;;;4974206;28;20338;-51
2024/03/14 12:03:14;;;;;;;;;;;;;;;;;;4972250;28;19914;-49
2024/03/14 12:05:44;;;;;;;;;;;;;;;;;;4971805;28;20008;-47
2024/03/14 12:08:13;;;;;;;;;;;;;;;;;;4973681;28;19960;-48
2024/03/14 12:10:39;;;;;;;;;;;;;;;;;;4974298;28;19965;-51
2024/03/14 12:13:05;;;;;;;;;;;;;;;;;;4972261;28;20480;-46
2024/03/14 12:15:35;;;;;;;;;;;;;;;;;;4973904;28;19941;-46
2024/03/14 12:18:01;;;;;;;;;;;;;;;;;;4972070;28;19964;-46
2024/03/14 12:20:28;;;;;;;;;;;;;;;;;;4973021;28;19969;-47
2024/03/14 12:22:57;;;;;;;;;;;;;;;;;;4973799;28;19915;-46
2024/03/14 12:25:24;;;;;;;;;;;;;;;;;;4973792;28;19968;-48
2024/03/14 12:27:50;;;;;;;;;;;;;;;;;;4972602;28;20029;-45
2024/03/14 12:30:16;;;;;;;;;;;;;;;;;;4973892;28;20431;-47
2024/03/14 12:32:43;;;;;;;;;;;;;;;;;;4973656;28;20005;-47
2024/03/14 12:35:13;;;;;;;;;;;;;;;;;;4973256;28;19941;-45
2024/03/14 12:37:42;;;;;;;;;;;;;;;;;;4972819;28;19918;-46
2024/03/14 12:40:08;;;;;;;;;;;;;;;;;;4972231;28;20508;-46
2024/03/14 12:42:35;;;;;;;;;;;;;;;;;;4973263;28;19949;-45
2024/03/14 12:45:02;;;;;;;;;;;;;;;;;;4973595;28;19921;-46
2024/03/14 12:47:28;;;;;;;;;;;;;;;;;;4972321;28;20343;-47
2024/03/14 12:49:57;;;;;;;;;;;;;;;;;;4973343;28;19961;-47
2024/03/14 12:52:23;;;;;;;;;;;;;;;;;;4972989;28;20017;-47
2024/03/14 12:54:49;;;;;;;;;;;;;;;;;;4973674;28;20372;-46
2024/03/14 12:57:16;;;;;;;;;;;;;;;;;;4970889;28;19914;-46
2024/03/14 12:59:42;;;;;;;;;;;;;;;;;;4973086;28;19973;-46
2024/03/14 13:02:10;;;;;;;;;;;;;;;;;;4970367;28;19961;-46
2024/03/14 13:04:36;;;;;;;;;;;;;;;;;;4973013;28;19918;-46
2024/03/14 13:07:04;;;;;;;;;;;;;;;;;;4973140;28;19906;-49
2024/03/14 13:09:31;;;;;;;;;;;;;;;;;;4971246;28;19910;-46
2024/03/14 13:11:58;;;;;;;;;;;;;;;;;;4972315;28;20245;-45
2024/03/14 13:14:25;;;;;;;;;;;;;;;;;;4973174;28;19910;-47
2024/03/14 13:16:51;;;;;;;;;;;;;;;;;;4973240;28;20391;-49
2024/03/14 13:19:17;;;;;;;;;;;;;;;;;;4970708;28;19914;-50
2024/03/14 13:21:43;;;;;;;;;;;;;;;;;;4965282;28;19914;-48
2024/03/14 13:24:09;;;;;;;;;;;;;;;;;;4956737;28;19910;-46
2024/03/14 13:26:35;;;;;;;;;;;;;;;;;;4971349;28;19911;-49
2024/03/14 13:29:01;;;;;;;;;;;;;;;;;;4970555;28;19922;-47
2024/03/14 13:31:29;;;;;;;;;;;;;;;;;;4968980;28;19996;-48
2024/03/14 13:33:58;;;;;;;;;;;;;;;;;;4973451;28;20368;-46
2024/03/14 13:36:26;;;;;;;;;;;;;;;;;;4971197;28;19920;-48
2024/03/14 13:38:56;;;;;;;;;;;;;;;;;;4971267;28;19910;-47
2024/03/14 13:41:28;;;;;;;;;;;;;;;;;;4971401;28;19921;-50
2024/03/14 13:43:54;;;;;;;;;;;;;;;;;;4972290;28;19917;-48
2024/03/14 13:46:20;;;;;;;;;;;;;;;;;;4970442;28;19914;-50
2024/03/14 13:48:47;;;;;;;;;;;;;;;;;;4971491;28;19955;-50
2024/03/14 13:51:13;;;;;;;;;;;;;;;;;;4972188;28;19911;-49
2024/03/14 13:53:39;;;;;;;;;;;;;;;;;;4972138;28;19984;-47
2024/03/14 13:56:07;;;;;;;;;;;;;;;;;;4971477;28;19914;-47
2024/03/14 13:58:36;;;;;;;;;;;;;;;;;;4972303;28;19914;-48
2024/03/14 14:01:17;;;;;;;;;;;;;;;;;;4970702;28;20005;-47
2024/03/14 14:03:43;;;;;;;;;;;;;;;;;;4972056;28;20399;-48
2024/03/14 14:06:12;;;;;;;;;;;;;;;;;;4970336;28;19964;-47
2024/03/14 14:08:40;;;;;;;;;;;;;;;;;;4971710;28;20053;-51
2024/03/14 14:11:07;;;;;;;;;;;;;;;;;;4970249;28;19914;-49
2024/03/14 14:13:33;;;;;;;;;;;;;;;;;;4967244;28;19914;-48
2024/03/14 14:15:58;;;;;;;;;;;;;;;;;;4973176;28;19910;-47
2024/03/14 14:18:24;;;;;;;;;;;;;;;;;;4973440;28;19910;-48
2024/03/14 14:20:50;;;;;;;;;;;;;;;;;;4972156;28;19914;-51
2024/03/14 14:23:16;;;;;;;;;;;;;;;;;;4973152;28;19910;-49
2024/03/14 14:25:44;;;;;;;;;;;;;;;;;;4972430;28;19918;-48
2024/03/14 14:28:10;;;;;;;;;;;;;;;;;;4969117;28;19925;-49
2024/03/14 14:30:38;;;;;;;;;;;;;;;;;;4970460;28;20360;-47
2024/03/14 14:33:04;;;;;;;;;;;;;;;;;;4969160;28;19939;-49
2024/03/14 14:35:30;;;;;;;;;;;;;;;;;;4970690;28;20399;-46
2024/03/14 14:37:56;;;;;;;;;;;;;;;;;;4972352;28;20419;-48
2024/03/14 14:40:22;;;;;;;;;;;;;;;;;;4972105;28;19914;-46
2024/03/14 14:42:48;;;;;;;;;;;;;;;;;;4971022;28;19961;-49
2024/03/14 14:45:16;;;;;;;;;;;;;;;;;;4970537;28;19949;-47
2024/03/14 14:47:42;;;;;;;;;;;;;;;;;;4963038;28;19922;-50
2024/03/14 14:50:08;;;;;;;;;;;;;;;;;;4966989;28;19910;-50
2024/03/14 14:52:35;;;;;;;;;;;;;;;;;;4970622;28;20362;-50
2024/03/14 14:55:01;;;;;;;;;;;;;;;;;;4970273;28;20013;-48
2024/03/14 14:57:27;;;;;;;;;;;;;;;;;;4970581;28;19998;-48
2024/03/14 14:59:53;;;;;;;;;;;;;;;;;;4973251;28;19967;-47
2024/03/14 15:02:19;;;;;;;;;;;;;;;;;;4975675;28;19925;-51
2024/03/14 15:04:46;;;;;;;;;;;;;;;;;;4975578;28;20052;-46
2024/03/14 15:07:12;;;;;;;;;;;;;;;;;;4995198;28;19929;-47
2024/03/14 15:09:38;;;;;;;;;;;;;;;;;;4989404;28;20368;-47
2024/03/14 15:12:04;;;;;;;;;;;;;;;;;;4975530;28;20376;-51
2024/03/14 15:14:30;;;;;;;;;;;;;;;;;;4974478;28;20336;-49
2024/03/14 15:16:56;;;;;;;;;;;;;;;;;;4975930;28;20000;-51
2024/03/14 15:19:22;;;;;;;;;;;;;;;;;;4975393;28;19913;-48
2024/03/14 15:21:48;;;;;;;;;;;;;;;;;;4975338;28;19910;-49
2024/03/14 15:24:18;;;;;;;;;;;;;;;;;;4975385;28;19910;-46
2024/03/14 15:26:46;;;;;;;;;;;;;;;;;;4974220;28;19957;-50
2024/03/14 15:29:13;;;;;;;;;;;;;;;;;;4975208;28;19968;-48
2024/03/14 15:31:39;;;;;;;;;;;;;;;;;;4975384;28;19917;-48
2024/03/14 15:34:06;;;;;;;;;;;;;;;;;;4975193;28;19976;-47
2024/03/14 15:36:31;;;;;;;;;;;;;;;;;;4974369;28;19914;-50
2024/03/14 15:38:58;;;;;;;;;;;;;;;;;;4975253;28;20279;-48
2024/03/14 15:41:27;;;;;;;;;;;;;;;;;;4973773;28;19953;-47
2024/03/14 15:43:53;;;;;;;;;;;;;;;;;;4975203;28;20289;-48
2024/03/14 15:46:19;;;;;;;;;;;;;;;;;;4974882;28;19942;-47
2024/03/14 15:48:45;;;;;;;;;;;;;;;;;;4974639;28;19988;-48
2024/03/14 15:51:15;;;;;;;;;;;;;;;;;;4975942;28;19918;-51
2024/03/14 15:53:41;;;;;;;;;;;;;;;;;;4974658;28;19917;-48
2024/03/14 15:56:07;;;;;;;;;;;;;;;;;;4974447;28;19911;-51
2024/03/14 15:58:34;;;;;;;;;;;;;;;;;;4973501;28;19921;-50
2024/03/14 16:01:00;;;;;;;;;;;;;;;;;;4973945;28;19964;-51
2024/03/14 16:03:26;;;;;;;;;;;;;;;;;;4974949;28;20009;-48
2024/03/14 16:05:54;;;;;;;;;;;;;;;;;;4974745;28;19977;-48
2024/03/14 16:08:20;;;;;;;;;;;;;;;;;;4974497;28;19921;-49
2024/03/14 16:10:46;;;;;;;;;;;;;;;;;;4973384;28;19910;-50
2024/03/14 16:13:12;;;;;;;;;;;;;;;;;;4972581;28;19961;-49
2024/03/14 16:15:37;;;;;;;;;;;;;;;;;;4973451;28;19918;-49
2024/03/14 16:18:04;;;;;;;;;;;;;;;;;;4966576;28;19918;-51
2024/03/14 16:20:31;;;;;;;;;;;;;;;;;;4973433;28;20344;-47
2024/03/14 16:23:00;;;;;;;;;;;;;;;;;;4974089;28;20376;-51
2024/03/14 16:25:26;;;;;;;;;;;;;;;;;;4974306;28;19957;-49
2024/03/14 16:27:52;;;;;;;;;;;;;;;;;;4973153;28;19926;-51
2024/03/14 16:30:18;;;;;;;;;;;;;;;;;;4972782;28;20411;-49
2024/03/14 16:32:44;;;;;;;;;;;;;;;;;;4974177;28;19910;-51
2024/03/14 16:35:15;;;;;;;;;;;;;;;;;;4975038;28;20012;-50
2024/03/14 16:37:41;;;;;;;;;;;;;;;;;;4974318;28;19921;-50
2024/03/14 16:40:10;;;;;;;;;;;;;;;;;;4973861;28;19910;-49
2024/03/14 16:42:37;;;;;;;;;;;;;;;;;;4974181;28;19911;-46
2024/03/14 16:45:02;;;;;;;;;;;;;;;;;;4972968;28;19973;-47
2024/03/14 16:47:28;;;;;;;;;;;;;;;;;;4969510;28;20388;-43
2024/03/14 16:49:54;;;;;;;;;;;;;;;;;;4971405;28;19914;-43
2024/03/14 16:52:20;;;;;;;;;;;;;;;;;;4968841;28;20009;-43
2024/03/14 16:54:46;;;;;;;;;;;;;;;;;;4969378;28;19925;-43
2024/03/14 16:57:12;;;;;;;;;;;;;;;;;;4972877;28;19914;-43
2024/03/14 16:59:38;;;;;;;;;;;;;;;;;;4969395;28;19961;-43
2024/03/14 17:02:04;;;;;;;;;;;;;;;;;;4973610;28;20431;-44
2024/03/14 17:04:30;;;;;;;;;;;;;;;;;;4972589;28;19914;-43
2024/03/14 17:06:56;;;;;;;;;;;;;;;;;;4974567;28;19917;-43
2024/03/14 17:09:24;;;;;;;;;;;;;;;;;;4973053;28;20296;-44
2024/03/14 17:11:51;;;;;;;;;;;;;;;;;;4970955;28;19915;-43
2024/03/14 17:14:16;;;;;;;;;;;;;;;;;;4974287;28;19953;-43
2024/03/14 17:16:44;;;;;;;;;;;;;;;;;;4973092;28;20356;-43
2024/03/14 17:19:11;;;;;;;;;;;;;;;;;;4972505;28;20276;-44
2024/03/14 17:21:37;;;;;;;;;;;;;;;;;;4971590;28;19914;-43
2024/03/14 17:24:04;;;;;;;;;;;;;;;;;;4973903;28;19957;-43
2024/03/14 17:26:30;;;;;;;;;;;;;;;;;;4974399;28;20399;-43
2024/03/14 17:28:56;;;;;;;;;;;;;;;;;;4972329;28;19918;-42
2024/03/14 17:31:22;;;;;;;;;;;;;;;;;;4971482;28;19918;-43
2024/03/14 17:33:50;;;;;;;;;;;;;;;;;;4969373;28;19921;-46
2024/03/14 17:36:18;;;;;;;;;;;;;;;;;;4972865;28;19910;-43
2024/03/14 17:38:43;;;;;;;;;;;;;;;;;;4973424;28;19917;-44
2024/03/14 17:41:10;;;;;;;;;;;;;;;;;;4972919;28;19911;-43
2024/03/14 17:43:36;;;;;;;;;;;;;;;;;;4973266;28;20073;-42
2024/03/14 17:46:02;;;;;;;;;;;;;;;;;;4972017;28;20356;-43
2024/03/14 17:48:28;;;;;;;;;;;;;;;;;;4967774;28;19932;-45
2024/03/14 17:50:54;;;;;;;;;;;;;;;;;;4976466;28;19914;-45
2024/03/14 17:53:20;;;;;;;;;;;;;;;;;;4972180;28;19949;-46
2024/03/14 17:55:46;;;;;;;;;;;;;;;;;;4971941;28;19953;-43
2024/03/14 17:58:13;;;;;;;;;;;;;;;;;;4969608;28;19918;-44
2024/03/14 18:00:39;;;;;;;;;;;;;;;;;;4971333;28;19926;-43
2024/03/14 18:03:06;;;;;;;;;;;;;;;;;;4972179;28;19914;-44
2024/03/14 18:05:32;;;;;;;;;;;;;;;;;;4972223;28;19921;-43
2024/03/14 18:07:58;;;;;;;;;;;;;;;;;;4971570;28;20289;-44
2024/03/14 18:10:25;;;;;;;;;;;;;;;;;;4970046;28;20088;-43
2024/03/14 18:12:51;;;;;;;;;;;;;;;;;;4971808;28;19918;-43
2024/03/14 18:15:17;;;;;;;;;;;;;;;;;;4971957;28;19907;-42
2024/03/14 18:17:43;;;;;;;;;;;;;;;;;;4971603;28;19935;-43
2024/03/14 18:20:10;;;;;;;;;;;;;;;;;;4968524;28;19921;-44
2024/03/14 18:22:40;;;;;;;;;;;;;;;;;;4969689;28;19998;-46
2024/03/14 18:25:06;;;;;;;;;;;;;;;;;;4970333;28;19968;-43
2024/03/14 18:27:31;;;;;;;;;;;;;;;;;;4970656;28;19922;-43
2024/03/14 18:29:57;;;;;;;;;;;;;;;;;;4969157;28;20265;-44
2024/03/14 18:32:24;;;;;;;;;;;;;;;;;;4983254;28;19933;-43
2024/03/14 18:34:52;;;;;;;;;;;;;;;;;;4969261;28;19914;-43
2024/03/14 18:37:20;;;;;;;;;;;;;;;;;;4968918;28;19914;-43
2024/03/14 18:39:46;;;;;;;;;;;;;;;;;;4970530;28;19914;-43
2024/03/14 18:42:11;;;;;;;;;;;;;;;;;;4968897;28;19922;-45
2024/03/14 18:44:47;;;;;;;;;;;;;;;;;;4967391;28;20032;-43
2024/03/14 18:47:12;;;;;;;;;;;;;;;;;;4965666;28;20384;-45
2024/03/14 18:49:39;;;;;;;;;;;;;;;;;;4966150;28;19921;-42
2024/03/14 18:52:05;;;;;;;;;;;;;;;;;;4970767;28;20273;-48
2024/03/14 18:54:32;;;;;;;;;;;;;;;;;;4969830;28;19934;-47
2024/03/14 18:57:01;;;;;;;;;;;;;;;;;;4965106;28;20392;-43
2024/03/14 18:59:27;;;;;;;;;;;;;;;;;;4959734;28;19921;-44
2024/03/14 19:01:56;;;;;;;;;;;;;;;;;;4968794;28;19956;-46
2024/03/14 19:04:22;;;;;;;;;;;;;;;;;;4969613;28;19914;-44
2024/03/14 19:06:48;;;;;;;;;;;;;;;;;;4965398;28;19914;-45
2024/03/14 19:09:14;;;;;;;;;;;;;;;;;;4966515;28;20037;-45
2024/03/14 19:11:40;;;;;;;;;;;;;;;;;;4969478;28;20379;-42
2024/03/14 19:14:06;;;;;;;;;;;;;;;;;;4967974;28;19914;-42
2024/03/14 19:16:32;;;;;;;;;;;;;;;;;;4966910;28;19921;-43
2024/03/14 19:18:59;;;;;;;;;;;;;;;;;;4965822;28;19915;-43
2024/03/14 19:21:25;;;;;;;;;;;;;;;;;;4966060;28;19921;-45
2024/03/14 19:23:51;;;;;;;;;;;;;;;;;;4965982;28;19922;-44
2024/03/14 19:26:17;;;;;;;;;;;;;;;;;;4966375;28;19922;-46
2024/03/14 19:28:43;;;;;;;;;;;;;;;;;;4966037;28;20343;-43
2024/03/14 19:31:10;;;;;;;;;;;;;;;;;;4963460;28;19921;-43
2024/03/14 19:33:36;;;;;;;;;;;;;;;;;;4965430;28;19926;-45
2024/03/14 19:36:02;;;;;;;;;;;;;;;;;;4968795;28;20021;-43
2024/03/14 19:38:28;;;;;;;;;;;;;;;;;;4968268;28;19941;-42
2024/03/14 19:40:54;;;;;;;;;;;;;;;;;;4970339;28;19918;-42
2024/03/14 19:43:20;;;;;;;;;;;;;;;;;;4967128;28;20444;-42
2024/03/14 19:45:46;;;;;;;;;;;;;;;;;;4970713;28;19914;-42
2024/03/14 19:48:12;;;;;;;;;;;;;;;;;;4969301;28;19918;-42
2024/03/14 19:50:39;;;;;;;;;;;;;;;;;;4986435;28;19945;-42
2024/03/14 19:53:05;;;;;;;;;;;;;;;;;;4970705;28;19921;-45
2024/03/14 19:55:31;;;;;;;;;;;;;;;;;;4971693;28;19918;-43
2024/03/14 19:57:57;;;;;;;;;;;;;;;;;;4972342;28;19982;-43
2024/03/14 20:00:25;;;;;;;;;;;;;;;;;;4970263;28;19914;-44
2024/03/14 20:02:51;;;;;;;;;;;;;;;;;;4971581;28;19918;-43
2024/03/14 20:05:17;;;;;;;;;;;;;;;;;;4973496;28;19914;-47
2024/03/14 20:07:43;;;;;;;;;;;;;;;;;;4973416;28;20346;-44
2024/03/14 20:10:11;;;;;;;;;;;;;;;;;;4971630;28;19914;-43
2024/03/14 20:12:38;;;;;;;;;;;;;;;;;;4970940;28;20000;-43
2024/03/14 20:15:04;;;;;;;;;;;;;;;;;;4970634;28;19914;-44
2024/03/14 20:17:30;;;;;;;;;;;;;;;;;;4971698;28;19928;-43
2024/03/14 20:19:56;;;;;;;;;;;;;;;;;;4972336;28;19972;-42
2024/03/14 20:22:23;;;;;;;;;;;;;;;;;;4969150;28;19918;-43
2024/03/14 20:24:50;;;;;;;;;;;;;;;;;;4971676;28;19918;-44
2024/03/14 20:27:15;;;;;;;;;;;;;;;;;;4972274;28;19914;-45
2024/03/14 20:29:46;;;;;;;;;;;;;;;;;;4970045;28;20070;-42
2024/03/14 20:32:12;;;;;;;;;;;;;;;;;;4970833;28;19919;-42
2024/03/14 20:34:38;;;;;;;;;;;;;;;;;;4968609;28;19985;-47
2024/03/14 20:37:04;;;;;;;;;;;;;;;;;;4971611;28;20024;-45
2024/03/14 20:39:30;;;;;;;;;;;;;;;;;;4969674;28;19922;-43
2024/03/14 20:41:56;;;;;;;;;;;;;;;;;;4972290;28;19977;-44
2024/03/14 20:44:22;;;;;;;;;;;;;;;;;;4973394;28;20388;-44
2024/03/14 20:46:48;;;;;;;;;;;;;;;;;;4971249;28;19937;-43
2024/03/14 20:49:14;;;;;;;;;;;;;;;;;;4969859;28;19918;-45
2024/03/14 20:51:40;;;;;;;;;;;;;;;;;;4972725;28;19961;-44
2024/03/14 20:54:08;;;;;;;;;;;;;;;;;;4970914;28;20446;-45
2024/03/14 20:56:34;;;;;;;;;;;;;;;;;;4968586;28;19944;-47
2024/03/14 20:59:00;;;;;;;;;;;;;;;;;;4970356;28;20430;-45
2024/03/14 21:01:25;;;;;;;;;;;;;;;;;;4983997;28;20291;-44
2024/03/14 21:03:51;;;;;;;;;;;;;;;;;;4970509;28;19968;-42
2024/03/14 21:06:18;;;;;;;;;;;;;;;;;;4971281;28;20376;-43
2024/03/14 21:08:44;;;;;;;;;;;;;;;;;;4970658;28;20412;-42
2024/03/14 21:11:10;;;;;;;;;;;;;;;;;;4968999;28;20411;-43
2024/03/14 21:13:36;;;;;;;;;;;;;;;;;;4972037;28;19918;-42
2024/03/14 21:16:05;;;;;;;;;;;;;;;;;;4969836;28;19914;-42
2024/03/14 21:18:31;;;;;;;;;;;;;;;;;;4966585;28;20355;-42
2024/03/14 21:20:57;;;;;;;;;;;;;;;;;;4971271;28;19968;-42
2024/03/14 21:23:23;;;;;;;;;;;;;;;;;;4972916;28;19997;-43
2024/03/14 21:25:51;;;;;;;;;;;;;;;;;;4967874;28;19914;-44
2024/03/14 21:28:19;;;;;;;;;;;;;;;;;;4967219;28;19965;-42
2024/03/14 21:30:44;;;;;;;;;;;;;;;;;;4968868;28;20036;-42
2024/03/14 21:33:10;;;;;;;;;;;;;;;;;;4969860;28;20364;-43
2024/03/14 21:35:36;;;;;;;;;;;;;;;;;;4970961;28;19914;-44
2024/03/14 21:38:04;;;;;;;;;;;;;;;;;;4971925;28;19956;-42
2024/03/14 21:40:30;;;;;;;;;;;;;;;;;;4970684;28;20009;-43
2024/03/14 21:42:55;;;;;;;;;;;;;;;;;;4969816;28;20451;-45
2024/03/14 21:45:22;;;;;;;;;;;;;;;;;;4969317;28;20016;-42
2024/03/14 21:47:48;;;;;;;;;;;;;;;;;;4971349;28;20277;-44
2024/03/14 21:50:16;;;;;;;;;;;;;;;;;;4969319;28;19961;-44
2024/03/14 21:52:43;;;;;;;;;;;;;;;;;;4969843;28;20392;-44
2024/03/14 21:55:09;;;;;;;;;;;;;;;;;;4972210;28;19964;-45
2024/03/14 21:57:39;;;;;;;;;;;;;;;;;;4970342;28;19965;-44
2024/03/14 22:00:05;;;;;;;;;;;;;;;;;;4968331;28;20363;-43
2024/03/14 22:02:31;;;;;;;;;;;;;;;;;;4968733;28;19918;-43
2024/03/14 22:04:58;;;;;;;;;;;;;;;;;;4967976;28;19914;-43
2024/03/14 22:07:25;;;;;;;;;;;;;;;;;;4968020;28;19914;-42
2024/03/14 22:09:51;;;;;;;;;;;;;;;;;;4969760;28;19914;-43
2024/03/14 22:12:17;;;;;;;;;;;;;;;;;;4970406;28;20304;-43
2024/03/14 22:14:43;;;;;;;;;;;;;;;;;;4969433;28;19914;-44
2024/03/14 22:17:09;;;;;;;;;;;;;;;;;;4970465;28;19957;-42
2024/03/14 22:19:38;;;;;;;;;;;;;;;;;;4970276;28;19918;-42
2024/03/14 22:22:04;;;;;;;;;;;;;;;;;;4967166;28;20388;-42
2024/03/14 22:24:31;;;;;;;;;;;;;;;;;;4967560;28;19914;-42
2024/03/14 22:26:57;;;;;;;;;;;;;;;;;;4971802;28;19977;-46
2024/03/14 22:29:22;;;;;;;;;;;;;;;;;;4969612;28;19918;-45
2024/03/14 22:31:48;;;;;;;;;;;;;;;;;;4971690;28;19911;-43
2024/03/14 22:34:14;;;;;;;;;;;;;;;;;;4970595;28;19938;-43
2024/03/14 22:36:41;;;;;;;;;;;;;;;;;;4969992;28;20012;-42
2024/03/14 22:39:10;;;;;;;;;;;;;;;;;;4971616;28;19914;-42
2024/03/14 22:41:36;;;;;;;;;;;;;;;;;;4971116;28;19914;-42